Time;durP1;ratioP1;P1;durP2;ratioP2;P2;SDS_P1;SDS_P2;PMS_P1;PMS_P2;Temp;Humidity;BMP_temperature;BMP_pressure;BME280_temperature;BME280_humidity;BME280_pressure;Samples;Min_cycle;Max_cycle;Signal;HPM_P1;HPM_P2
2023/08/12 00:00:23;;;;;;;3.80;2.03;;;25.70;96.70;;;;;;5057401;28;20048;-74
2023/08/12 00:02:51;;;;;;;4.05;2.30;;;25.70;96.70;;;;;;5065168;28;20498;-74
2023/08/12 00:05:20;;;;;;;3.72;1.77;;;25.60;96.70;;;;;;5066117;28;20041;-73
2023/08/12 00:07:49;;;;;;;3.50;1.42;;;25.60;96.70;;;;;;5065268;28;20051;-73
2023/08/12 00:10:17;;;;;;;3.55;1.60;;;25.60;96.70;;;;;;5066246;28;20582;-73
2023/08/12 00:12:45;;;;;;;10.25;2.30;;;25.50;96.70;;;;;;5066317;28;20064;-74
2023/08/12 00:15:13;;;;;;;3.97;1.90;;;25.50;96.70;;;;;;5065794;28;20414;-73
2023/08/12 00:17:41;;;;;;;3.95;1.75;;;25.50;96.70;;;;;;5066796;28;20055;-73
2023/08/12 00:20:11;;;;;;;2.58;1.40;;;25.30;96.70;;;;;;5065668;28;20048;-73
2023/08/12 00:22:40;;;;;;;3.40;1.70;;;25.30;96.70;;;;;;5066355;28;20693;-73
2023/08/12 00:25:09;;;;;;;3.10;1.63;;;25.30;96.70;;;;;;5041636;28;20531;-73
2023/08/12 00:27:37;;;;;;;5.90;1.80;;;25.40;96.70;;;;;;5069670;28;20044;-73
2023/08/12 00:30:06;;;;;;;3.55;1.40;;;25.40;96.70;;;;;;5066334;28;20503;-73
2023/08/12 00:32:34;;;;;;;2.83;2.00;;;25.40;96.70;;;;;;5064844;28;20133;-73
2023/08/12 00:35:03;;;;;;;3.13;2.05;;;25.40;96.70;;;;;;5066405;28;20040;-72
2023/08/12 00:37:31;;;;;;;3.58;1.70;;;25.30;96.70;;;;;;5066437;28;20044;-73
2023/08/12 00:40:00;;;;;;;2.45;1.60;;;25.30;96.70;;;;;;5061763;28;20131;-73
2023/08/12 00:42:29;;;;;;;4.18;1.80;;;25.30;96.70;;;;;;5047363;28;20060;-73
2023/08/12 00:44:57;;;;;;;4.50;1.85;;;25.30;96.70;;;;;;5066026;28;20086;-73
2023/08/12 00:47:27;;;;;;;2.58;1.70;;;25.40;96.70;;;;;;5066020;28;20072;-73
2023/08/12 00:49:57;;;;;;;4.00;1.55;;;25.20;96.70;;;;;;5058558;28;20054;-73
2023/08/12 00:52:26;;;;;;;2.22;1.80;;;25.10;96.70;;;;;;5063737;28;20052;-73
2023/08/12 00:54:54;;;;;;;4.47;1.83;;;25.00;96.70;;;;;;5065077;28;20121;-73
2023/08/12 00:57:23;;;;;;;3.25;1.50;;;24.90;96.70;;;;;;5064758;28;20478;-73
2023/08/12 00:59:52;;;;;;;2.22;1.60;;;24.90;96.70;;;;;;5047867;28;20036;-73
2023/08/12 01:02:21;;;;;;;7.22;1.73;;;24.90;96.70;;;;;;5062501;28;20048;-74
2023/08/12 01:04:49;;;;;;;4.57;1.83;;;24.90;96.70;;;;;;5063126;28;20040;-73
2023/08/12 01:07:17;;;;;;;3.10;1.70;;;24.80;96.70;;;;;;5064416;28;20045;-73
2023/08/12 01:09:45;;;;;;;4.55;1.90;;;24.90;96.70;;;;;;5047402;28;20101;-73
2023/08/12 01:12:18;;;;;;;4.47;1.63;;;24.80;96.70;;;;;;5071516;28;20135;-73
2023/08/12 01:14:56;;;;;;;4.45;1.77;;;24.80;96.70;;;;;;5065323;28;20041;-74
2023/08/12 01:17:25;;;;;;;4.97;1.42;;;24.80;96.70;;;;;;5064035;28;20040;-74
2023/08/12 01:19:55;;;;;;;3.08;1.80;;;24.70;96.70;;;;;;5062669;28;20045;-73
2023/08/12 01:22:25;;;;;;;4.65;1.80;;;24.60;96.70;;;;;;5062365;28;20596;-73
2023/08/12 01:24:55;;;;;;;4.60;1.73;;;24.40;96.70;;;;;;5063949;28;20525;-74
2023/08/12 01:27:24;;;;;;;2.08;1.60;;;24.40;96.70;;;;;;5064955;28;20421;-73
2023/08/12 01:29:52;;;;;;;3.60;1.52;;;24.30;96.70;;;;;;5072628;28;20068;-78
2023/08/12 01:32:27;;;;;;;3.88;1.70;;;24.40;96.70;;;;;;5063691;28;20059;-79
2023/08/12 01:35:01;;;;;;;1.70;1.40;;;24.40;96.70;;;;;;5065717;28;20102;-78
2023/08/12 01:37:32;;;;;;;4.15;1.75;;;24.50;96.70;;;;;;5064686;28;20040;-78
2023/08/12 01:40:05;;;;;;;3.30;1.80;;;24.40;96.70;;;;;;5064748;28;20040;-78
2023/08/12 01:42:34;;;;;;;2.00;1.40;;;24.40;96.70;;;;;;5063504;28;20150;-79
2023/08/12 01:45:03;;;;;;;3.22;1.63;;;24.30;96.70;;;;;;5063498;28;20041;-81
2023/08/12 01:47:34;;;;;;;4.32;1.80;;;24.20;96.70;;;;;;5063376;28;20048;-79
2023/08/12 01:50:03;;;;;;;4.72;1.80;;;24.20;96.70;;;;;;5047008;28;20048;-78
2023/08/12 01:52:31;;;;;;;3.15;1.52;;;24.20;96.70;;;;;;5065447;28;20212;-78
2023/08/12 01:55:01;;;;;;;2.33;1.58;;;24.10;96.70;;;;;;5063870;28;20060;-79
2023/08/12 01:57:29;;;;;;;3.85;1.70;;;24.00;96.70;;;;;;5064377;28;20044;-80
2023/08/12 01:59:57;;;;;;;3.60;1.60;;;24.00;96.70;;;;;;5047314;28;20482;-79
2023/08/12 02:02:25;;;;;;;4.10;1.60;;;24.00;96.70;;;;;;5064181;28;20041;-77
2023/08/12 02:04:53;;;;;;;1.88;1.63;;;24.00;96.70;;;;;;5064187;28;20037;-78
2023/08/12 02:07:21;;;;;;;2.83;1.75;;;24.00;96.70;;;;;;5056913;28;20049;-79
2023/08/12 02:09:49;;;;;;;3.08;1.60;;;24.00;96.70;;;;;;5046128;28;20605;-79
2023/08/12 02:12:19;;;;;;;3.40;1.52;;;24.00;96.70;;;;;;5063245;28;20052;-79
2023/08/12 02:14:47;;;;;;;4.35;1.75;;;24.00;96.70;;;;;;5063213;28;20048;-79
2023/08/12 02:17:15;;;;;;;2.72;1.63;;;23.90;96.70;;;;;;5061761;28;20072;-78
2023/08/12 02:19:43;;;;;;;3.25;1.63;;;23.80;96.70;;;;;;5079669;28;20127;-78
2023/08/12 02:22:11;;;;;;;5.10;1.80;;;23.80;96.70;;;;;;5046954;28;20464;-78
2023/08/12 02:24:39;;;;;;;3.78;1.52;;;23.80;96.70;;;;;;5043188;28;20668;-78
2023/08/12 02:27:07;;;;;;;2.50;1.88;;;23.90;96.70;;;;;;5063401;28;20121;-80
2023/08/12 02:29:37;;;;;;;5.20;1.92;;;23.80;96.70;;;;;;5065998;28;20052;-78
2023/08/12 02:32:05;;;;;;;2.50;1.80;;;23.90;96.70;;;;;;5062926;28;20132;-79
2023/08/12 02:34:33;;;;;;;3.88;1.85;;;23.90;96.70;;;;;;5062341;28;20509;-79
2023/08/12 02:37:01;;;;;;;2.55;1.83;;;23.90;96.70;;;;;;5064588;28;20147;-77
2023/08/12 02:39:30;;;;;;;2.20;1.30;;;23.90;96.70;;;;;;5063179;28;20041;-79
2023/08/12 02:41:58;;;;;;;2.95;1.70;;;23.80;96.70;;;;;;5064047;28;20070;-78
2023/08/12 02:44:29;;;;;;;3.30;1.40;;;23.80;96.70;;;;;;5060972;28;20418;-76
2023/08/12 02:46:58;;;;;;;2.60;1.52;;;23.70;96.70;;;;;;5062944;28;20401;-78
2023/08/12 02:49:27;;;;;;;2.78;1.60;;;23.70;96.70;;;;;;5062367;28;20059;-77
2023/08/12 02:51:55;;;;;;;4.55;2.15;;;23.70;96.70;;;;;;5064137;28;20966;-78
2023/08/12 02:54:23;;;;;;;3.40;1.35;;;23.70;96.70;;;;;;5062491;28;20048;-76
2023/08/12 02:56:51;;;;;;;2.97;1.73;;;23.80;96.70;;;;;;5060631;28;20056;-79
2023/08/12 02:59:19;;;;;;;3.47;1.67;;;23.70;96.70;;;;;;5061230;28;20549;-78
2023/08/12 03:01:48;;;;;;;3.10;1.58;;;23.60;96.70;;;;;;5062200;28;20045;-78
2023/08/12 03:04:17;;;;;;;2.90;1.60;;;23.60;96.70;;;;;;5062175;28;20040;-78
2023/08/12 03:06:46;;;;;;;2.40;1.48;;;23.60;96.70;;;;;;5046073;28;20137;-78
2023/08/12 03:09:15;;;;;;;2.97;1.70;;;23.60;96.70;;;;;;5062191;28;20037;-79
2023/08/12 03:11:45;;;;;;;4.03;1.67;;;23.50;96.70;;;;;;5061785;28;20052;-78
2023/08/12 03:14:13;;;;;;;2.60;1.75;;;23.50;96.70;;;;;;5057281;28;20512;-79
2023/08/12 03:16:42;;;;;;;3.63;1.90;;;23.50;96.70;;;;;;5062122;28;20048;-79
2023/08/12 03:19:11;;;;;;;4.07;1.85;;;23.50;96.70;;;;;;5062971;28;20051;-78
2023/08/12 03:21:41;;;;;;;2.55;1.63;;;23.60;96.70;;;;;;5062039;28;20043;-79
2023/08/12 03:24:09;;;;;;;3.13;1.90;;;23.50;96.70;;;;;;5062289;28;20044;-79
2023/08/12 03:26:37;;;;;;;3.67;1.80;;;23.50;96.70;;;;;;5078780;28;20109;-78
2023/08/12 03:29:06;;;;;;;2.45;1.67;;;23.50;96.70;;;;;;5062011;28;20052;-78
2023/08/12 03:31:38;;;;;;;3.25;1.70;;;23.40;96.70;;;;;;5061907;28;20072;-79
2023/08/12 03:34:07;;;;;;;1.92;1.40;;;23.40;96.70;;;;;;5046283;28;20529;-79
2023/08/12 03:36:36;;;;;;;2.63;1.67;;;23.30;96.70;;;;;;5062347;28;20090;-78
2023/08/12 03:39:07;;;;;;;24.38;22.02;;;23.30;96.70;;;;;;5061732;28;20045;-78
2023/08/12 03:41:37;;;;;;;103.25;80.15;;;23.30;96.70;;;;;;5045757;28;20044;-80
2023/08/12 03:44:06;;;;;;;45.75;32.50;;;23.20;96.70;;;;;;5062377;28;20094;-77
2023/08/12 03:46:35;;;;;;;32.38;27.58;;;23.20;96.70;;;;;;5063356;28;20047;-79
2023/08/12 03:49:04;;;;;;;94.65;67.43;;;23.20;96.70;;;;;;5062330;28;20067;-79
2023/08/12 03:51:34;;;;;;;41.72;28.40;;;23.20;96.70;;;;;;5044484;28;20045;-78
2023/08/12 03:54:03;;;;;;;16.90;12.85;;;23.30;96.70;;;;;;5061882;28;20063;-79
2023/08/12 03:56:34;;;;;;;14.13;10.38;;;23.30;96.70;;;;;;5061972;28;20554;-79
2023/08/12 03:59:05;;;;;;;5.97;4.80;;;23.30;96.70;;;;;;5045332;28;20580;-79
2023/08/12 04:01:34;;;;;;;250.07;71.13;;;23.20;96.70;;;;;;5062068;28;20054;-79
2023/08/12 04:04:03;;;;;;;55.28;23.98;;;23.10;96.70;;;;;;5062073;28;20558;-79
2023/08/12 04:06:32;;;;;;;25.90;11.45;;;23.00;96.70;;;;;;5061975;28;20055;-73
2023/08/12 04:09:00;;;;;;;11.25;5.60;;;23.10;96.70;;;;;;5062162;28;20049;-73
2023/08/12 04:11:29;;;;;;;12.70;5.38;;;23.00;96.70;;;;;;5061394;28;20516;-74
2023/08/12 04:13:59;;;;;;;9.13;3.60;;;23.00;96.70;;;;;;5060996;28;20528;-73
2023/08/12 04:16:28;;;;;;;6.05;2.85;;;23.00;96.70;;;;;;5061435;28;20548;-73
2023/08/12 04:18:57;;;;;;;6.00;2.17;;;23.00;96.70;;;;;;5062287;28;20032;-73
2023/08/12 04:21:25;;;;;;;2.75;2.40;;;23.00;96.70;;;;;;5061811;28;20048;-73
2023/08/12 04:23:54;;;;;;;6.43;1.85;;;23.00;96.70;;;;;;5060607;28;20048;-74
2023/08/12 04:26:23;;;;;;;3.35;2.00;;;22.90;96.70;;;;;;5063473;28;20064;-73
2023/08/12 04:28:52;;;;;;;3.83;2.00;;;22.90;96.70;;;;;;5061634;28;20051;-74
2023/08/12 04:31:23;;;;;;;3.60;1.88;;;22.80;96.70;;;;;;5046201;28;20040;-73
2023/08/12 04:33:52;;;;;;;4.55;2.05;;;22.70;96.70;;;;;;5057098;28;20080;-73
2023/08/12 04:36:23;;;;;;;4.60;2.20;;;22.70;96.70;;;;;;5048848;28;20147;-73
2023/08/12 04:38:53;;;;;;;2.97;1.80;;;22.70;96.70;;;;;;5064131;28;20040;-74
2023/08/12 04:41:23;;;;;;;3.33;2.10;;;22.70;96.70;;;;;;5063417;28;20044;-74
2023/08/12 04:43:54;;;;;;;5.05;1.95;;;22.90;96.70;;;;;;5048140;28;20052;-73
2023/08/12 04:46:28;;;;;;;2.60;2.00;;;22.90;96.70;;;;;;5048187;28;20063;-73
2023/08/12 04:48:57;;;;;;;4.82;2.10;;;22.80;96.70;;;;;;5062872;28;20036;-73
2023/08/12 04:51:25;;;;;;;3.70;2.03;;;22.90;96.70;;;;;;5064245;28;20075;-73
2023/08/12 04:53:54;;;;;;;6.93;2.08;;;22.90;96.70;;;;;;5066577;28;20058;-73
2023/08/12 04:56:24;;;;;;;3.20;1.73;;;22.80;96.70;;;;;;5063777;28;20036;-73
2023/08/12 04:58:54;;;;;;;3.85;1.92;;;22.80;96.70;;;;;;5059113;28;20036;-74
2023/08/12 05:01:24;;;;;;;3.22;1.55;;;22.90;96.70;;;;;;5076718;28;20110;-74
2023/08/12 05:03:54;;;;;;;3.55;1.75;;;23.00;96.70;;;;;;5064123;28;20051;-74
2023/08/12 05:06:23;;;;;;;3.22;1.85;;;23.00;96.70;;;;;;5061542;28;20063;-73
2023/08/12 05:08:51;;;;;;;2.17;1.55;;;23.00;96.70;;;;;;5062985;28;20514;-73
2023/08/12 05:11:19;;;;;;;2.60;1.52;;;23.00;96.70;;;;;;5064730;28;20081;-75
2023/08/12 05:13:48;;;;;;;3.40;1.88;;;23.00;96.70;;;;;;5063794;28;20063;-74
2023/08/12 05:16:16;;;;;;;4.47;1.70;;;23.10;96.70;;;;;;5064078;28;20045;-75
2023/08/12 05:18:44;;;;;;;3.28;1.80;;;23.00;96.70;;;;;;5063853;28;20045;-75
2023/08/12 05:21:14;;;;;;;5.22;1.48;;;23.00;96.70;;;;;;5064973;28;20948;-74
2023/08/12 05:23:42;;;;;;;3.03;1.65;;;23.00;96.70;;;;;;5046776;28;20044;-76
2023/08/12 05:26:11;;;;;;;3.35;1.83;;;23.10;96.70;;;;;;5046916;28;20462;-73
2023/08/12 05:28:39;;;;;;;2.92;1.60;;;23.10;96.70;;;;;;5063939;28;20051;-73
2023/08/12 05:31:08;;;;;;;4.70;1.50;;;23.10;96.70;;;;;;5065624;28;20463;-74
2023/08/12 05:33:36;;;;;;;2.65;1.90;;;23.10;96.70;;;;;;5065677;28;20091;-73
2023/08/12 05:36:05;;;;;;;5.65;1.88;;;23.30;96.70;;;;;;5061481;28;20052;-74
2023/08/12 05:38:34;;;;;;;5.88;1.60;;;23.30;96.70;;;;;;5064786;28;20041;-76
2023/08/12 05:41:07;;;;;;;2.75;1.30;;;23.40;96.70;;;;;;5064349;28;20083;-74
2023/08/12 05:43:35;;;;;;;3.05;1.85;;;23.30;96.70;;;;;;5064731;28;20041;-73
2023/08/12 05:46:03;;;;;;;4.85;2.10;;;23.20;96.70;;;;;;5065089;28;20044;-76
2023/08/12 05:48:31;;;;;;;3.28;1.65;;;23.40;96.70;;;;;;5063472;28;20052;-74
2023/08/12 05:51:00;;;;;;;7.95;2.22;;;23.40;96.70;;;;;;5063484;28;20044;-75
2023/08/12 05:53:28;;;;;;;7.28;2.97;;;23.50;96.70;;;;;;5061619;28;20599;-75
2023/08/12 05:55:58;;;;;;;10.32;3.63;;;23.50;96.70;;;;;;5063904;28;20037;-74
2023/08/12 05:58:26;;;;;;;6.32;5.68;;;23.50;96.70;;;;;;5064010;28;20611;-74
2023/08/12 06:00:54;;;;;;;2.65;2.15;;;23.40;96.70;;;;;;5063182;28;20512;-73
2023/08/12 06:03:22;;;;;;;33.30;18.65;;;23.40;96.70;;;;;;5055091;28;20044;-74
2023/08/12 06:05:51;;;;;;;6.57;3.88;;;23.40;96.70;;;;;;5064286;28;20110;-75
2023/08/12 06:08:19;;;;;;;9.38;4.38;;;23.50;96.70;;;;;;5062846;28;20048;-75
2023/08/12 06:10:48;;;;;;;7.35;3.92;;;23.70;96.70;;;;;;5063300;28;20050;-74
2023/08/12 06:13:18;;;;;;;9.00;3.35;;;23.80;96.70;;;;;;5046140;28;20048;-75
2023/08/12 06:15:46;;;;;;;4.15;2.08;;;23.90;96.70;;;;;;5064250;28;20047;-75
2023/08/12 06:18:14;;;;;;;5.05;2.40;;;23.90;96.70;;;;;;5057480;28;20044;-75
2023/08/12 06:20:42;;;;;;;3.20;1.90;;;23.90;96.70;;;;;;5057639;28;20047;-77
2023/08/12 06:23:11;;;;;;;8.40;2.20;;;23.90;96.70;;;;;;5064100;28;20094;-76
2023/08/12 06:25:42;;;;;;;3.47;1.92;;;24.00;96.70;;;;;;5063099;28;20153;-77
2023/08/12 06:28:11;;;;;;;4.50;2.08;;;24.00;96.70;;;;;;5063690;28;20051;-76
2023/08/12 06:30:44;;;;;;;4.53;1.98;;;24.10;96.70;;;;;;5055065;28;20041;-76
2023/08/12 06:33:13;;;;;;;6.65;2.00;;;24.10;96.70;;;;;;5062690;28;20082;-76
2023/08/12 06:35:44;;;;;;;3.83;2.40;;;24.20;96.70;;;;;;5046914;28;20056;-77
2023/08/12 06:38:15;;;;;;;6.00;2.28;;;24.20;96.70;;;;;;5059290;28;20045;-75
2023/08/12 06:40:44;;;;;;;3.95;2.00;;;24.30;96.70;;;;;;5071477;28;20095;-76
2023/08/12 06:43:13;;;;;;;4.53;1.88;;;24.30;96.70;;;;;;5062454;28;21087;-76
2023/08/12 06:45:44;;;;;;;3.35;1.63;;;24.50;96.70;;;;;;5042688;28;20041;-76
2023/08/12 06:48:12;;;;;;;3.75;1.35;;;24.50;96.70;;;;;;5060564;28;20125;-76
2023/08/12 06:50:41;;;;;;;4.80;1.90;;;24.60;96.70;;;;;;5063486;28;20043;-74
2023/08/12 06:53:09;;;;;;;15.07;12.63;;;24.60;96.70;;;;;;5063060;28;20162;-74
2023/08/12 06:55:44;;;;;;;5.78;4.07;;;24.70;96.70;;;;;;5063435;28;20059;-77
2023/08/12 06:58:13;;;;;;;6.90;4.70;;;24.70;96.70;;;;;;5060936;28;20075;-76
2023/08/12 07:00:43;;;;;;;7.38;5.88;;;24.90;96.70;;;;;;5063236;28;20127;-75
2023/08/12 07:03:14;;;;;;;4.78;3.58;;;24.90;96.70;;;;;;5062093;28;20858;-75
2023/08/12 07:05:45;;;;;;;3.63;2.78;;;25.00;96.70;;;;;;5060731;28;20044;-75
2023/08/12 07:08:13;;;;;;;3.03;2.17;;;25.10;96.70;;;;;;5062684;28;20152;-75
2023/08/12 07:10:42;;;;;;;2.38;1.52;;;25.10;96.70;;;;;;5045894;28;20102;-75
2023/08/12 07:13:10;;;;;;;3.03;2.20;;;25.20;96.70;;;;;;5062119;28;20143;-75
2023/08/12 07:15:38;;;;;;;3.17;2.10;;;25.30;96.70;;;;;;5062591;28;20047;-75
2023/08/12 07:18:08;;;;;;;2.75;2.00;;;25.40;96.70;;;;;;5063898;28;20131;-79
2023/08/12 07:20:36;;;;;;;2.97;1.60;;;25.40;96.70;;;;;;5064671;28;20052;-80
2023/08/12 07:23:05;;;;;;;4.70;1.80;;;25.50;96.70;;;;;;5063025;28;20041;-78
2023/08/12 07:25:33;;;;;;;4.40;1.90;;;25.60;96.70;;;;;;5062674;28;20072;-79
2023/08/12 07:28:01;;;;;;;1.58;1.40;;;25.60;96.70;;;;;;5063910;28;20041;-80
2023/08/12 07:30:30;;;;;;;3.63;1.40;;;25.70;96.70;;;;;;5062158;28;20052;-81
2023/08/12 07:32:58;;;;;;;3.08;1.17;;;25.80;96.70;;;;;;5053994;28;20049;-80
2023/08/12 07:35:28;;;;;;;1.73;1.40;;;25.80;96.70;;;;;;5063101;28;20048;-80
2023/08/12 07:37:56;;;;;;;8.85;6.05;;;25.90;96.70;;;;;;5066645;28;20555;-81
2023/08/12 07:40:24;;;;;;;7.63;6.00;;;26.00;96.70;;;;;;5062586;28;20410;-82
2023/08/12 07:42:53;;;;;;;6.03;1.80;;;26.00;96.70;;;;;;5063585;28;20129;-81
2023/08/12 07:45:22;;;;;;;4.18;1.80;;;26.10;96.70;;;;;;5062781;28;20508;-82
2023/08/12 07:47:50;;;;;;;1.75;1.48;;;26.20;96.70;;;;;;5062542;28;20239;-82
2023/08/12 07:50:19;;;;;;;4.30;1.90;;;26.30;96.70;;;;;;5062273;28;20040;-80
2023/08/12 07:52:49;;;;;;;5.22;2.05;;;26.40;96.70;;;;;;5063231;28;20502;-81
2023/08/12 07:55:18;;;;;;;2.63;1.90;;;26.50;96.70;;;;;;5058623;28;20129;-81
2023/08/12 07:57:46;;;;;;;2.72;1.40;;;26.50;96.70;;;;;;5062685;28;20561;-80
2023/08/12 08:00:16;;;;;;;3.15;1.85;;;26.50;96.70;;;;;;5063853;28;20059;-82
2023/08/12 08:02:44;;;;;;;2.90;1.60;;;26.50;96.70;;;;;;5063914;28;20775;-83
2023/08/12 08:05:12;;;;;;;2.72;1.50;;;26.60;96.70;;;;;;5066432;28;20130;-83
2023/08/12 08:07:40;;;;;;;2.20;1.40;;;26.70;96.70;;;;;;5068351;28;20048;-82
2023/08/12 08:10:10;;;;;;;4.32;1.70;;;26.80;96.70;;;;;;5069076;28;20905;-84
2023/08/12 08:12:39;;;;;;;1.95;1.60;;;26.90;96.70;;;;;;5061633;28;20045;-82
2023/08/12 08:15:07;;;;;;;2.90;1.60;;;26.90;96.70;;;;;;5067253;28;20436;-78
2023/08/12 08:17:36;;;;;;;4.18;3.53;;;27.00;96.70;;;;;;5069562;28;20048;-81
2023/08/12 08:20:07;;;;;;;5.22;2.38;;;27.10;96.70;;;;;;5061100;28;20048;-81
2023/08/12 08:22:35;;;;;;;3.38;1.70;;;27.10;96.70;;;;;;5068435;28;20120;-81
2023/08/12 08:25:03;;;;;;;3.53;1.83;;;27.20;96.70;;;;;;5067911;28;20143;-82
2023/08/12 08:27:33;;;;;;;4.28;1.52;;;27.20;96.70;;;;;;5066888;28;20502;-80
2023/08/12 08:30:01;;;;;;;2.83;1.25;;;27.40;96.70;;;;;;5063233;28;20044;-81
2023/08/12 08:32:29;;;;;;;3.15;1.85;;;27.50;96.70;;;;;;5066059;28;20053;-82
2023/08/12 08:34:57;;;;;;;2.65;1.00;;;27.50;96.70;;;;;;5068278;28;20123;-84
2023/08/12 08:37:25;;;;;;;2.42;1.17;;;27.50;96.70;;;;;;5068863;28;20098;-84
2023/08/12 08:39:53;;;;;;;2.20;1.27;;;27.60;96.70;;;;;;5069454;28;20040;-83
2023/08/12 08:42:24;;;;;;;4.20;1.48;;;27.70;96.70;;;;;;5066996;28;20048;-79
2023/08/12 08:44:56;;;;;;;2.90;1.35;;;27.80;96.70;;;;;;5066155;28;20053;-81
2023/08/12 08:47:27;;;;;;;3.58;1.50;;;27.90;96.70;;;;;;5066405;28;20052;-82
2023/08/12 08:49:56;;;;;;;2.08;1.10;;;28.10;96.70;;;;;;5065348;28;20041;-81
2023/08/12 08:52:25;;;;;;;1.95;1.30;;;28.30;96.70;;;;;;5067722;28;20072;-81
2023/08/12 08:54:53;;;;;;;4.35;1.25;;;28.50;96.70;;;;;;5049229;28;20044;-80
2023/08/12 08:57:22;;;;;;;4.75;1.25;;;28.50;96.70;;;;;;5065831;28;20528;-80
2023/08/12 09:00:09;;;;;;;2.67;1.40;;;28.70;96.70;;;;;;5066122;28;20036;-80
2023/08/12 09:02:43;;;;;;;3.25;1.35;;;28.80;96.70;;;;;;5059036;28;20094;-80
2023/08/12 09:05:12;;;;;;;2.42;1.10;;;28.80;96.70;;;;;;5067177;28;20654;-80
2023/08/12 09:07:44;;;;;;;1.33;1.13;;;28.90;96.70;;;;;;5066159;28;20048;-80
2023/08/12 09:10:12;;;;;;;4.07;1.38;;;29.00;96.70;;;;;;5066367;28;20147;-80
2023/08/12 09:12:43;;;;;;;2.70;1.20;;;29.00;96.70;;;;;;5049730;28;20068;-83
2023/08/12 09:15:13;;;;;;;1.90;1.25;;;29.10;96.70;;;;;;5060757;28;20041;-81
2023/08/12 09:17:41;;;;;;;3.35;1.00;;;29.20;96.70;;;;;;5046643;28;20044;-79
2023/08/12 09:20:13;;;;;;;1.80;1.15;;;29.20;96.70;;;;;;5058538;28;20084;-81
2023/08/12 09:22:42;;;;;;;1.33;1.23;;;29.40;96.70;;;;;;5065540;28;20410;-80
2023/08/12 09:25:11;;;;;;;3.88;1.58;;;29.50;96.70;;;;;;5048394;28;20045;-79
2023/08/12 09:27:39;;;;;;;2.20;1.58;;;29.50;96.70;;;;;;5065726;28;20072;-81
2023/08/12 09:30:08;;;;;;;1.60;1.05;;;29.30;96.70;;;;;;5067244;28;20037;-80
2023/08/12 09:32:38;;;;;;;2.00;1.27;;;29.30;96.70;;;;;;5061669;28;20148;-79
2023/08/12 09:35:16;;;;;;;4.57;1.23;;;29.30;96.70;;;;;;5067930;28;20047;-83
2023/08/12 09:37:46;;;;;;;2.85;1.00;;;29.50;96.70;;;;;;5044266;28;20063;-83
2023/08/12 09:40:15;;;;;;;3.33;0.90;;;29.80;96.70;;;;;;5064556;28;20049;-80
2023/08/12 09:42:46;;;;;;;1.00;0.90;;;29.90;96.70;;;;;;5066009;28;20040;-81
2023/08/12 09:45:15;;;;;;;6.88;1.10;;;29.80;96.70;;;;;;5061734;28;20127;-81
2023/08/12 09:47:45;;;;;;;1.67;1.05;;;30.00;96.70;;;;;;5058345;28;20041;-81
2023/08/12 09:50:14;;;;;;;1.75;1.10;;;30.20;96.70;;;;;;5068084;28;20086;-82
2023/08/12 09:52:42;;;;;;;5.10;1.30;;;30.40;96.70;;;;;;5066967;28;20063;-82
2023/08/12 09:55:15;;;;;;;3.95;1.05;;;30.40;96.70;;;;;;5066128;28;20131;-83
2023/08/12 09:57:47;;;;;;;1.52;1.10;;;30.60;96.70;;;;;;5065203;28;20071;-82
2023/08/12 10:00:18;;;;;;;2.33;0.85;;;30.70;96.70;;;;;;5066333;28;20044;-84
2023/08/12 10:02:51;;;;;;;1.83;1.05;;;30.80;96.70;;;;;;5065528;28;20547;-82
2023/08/12 10:05:26;;;;;;;3.13;0.98;;;30.90;96.70;;;;;;5066002;28;20070;-81
2023/08/12 10:07:55;;;;;;;1.15;0.80;;;31.00;96.70;;;;;;5066379;28;20500;-80
2023/08/12 10:10:23;;;;;;;2.45;0.70;;;31.00;96.70;;;;;;5064359;28;20038;-82
2023/08/12 10:12:51;;;;;;;1.05;0.70;;;30.90;96.70;;;;;;5065094;28;20067;-82
2023/08/12 10:15:21;;;;;;;1.35;0.95;;;30.70;96.70;;;;;;5065585;28;20223;-82
2023/08/12 10:17:52;;;;;;;1.85;0.98;;;30.80;96.70;;;;;;5065700;28;20119;-81
2023/08/12 10:20:22;;;;;;;3.03;0.80;;;30.80;96.70;;;;;;5071875;28;20684;-82
2023/08/12 10:22:51;;;;;;;0.88;0.70;;;31.00;96.70;;;;;;5065888;28;20064;-83
2023/08/12 10:25:23;;;;;;;3.17;0.88;;;31.30;96.70;;;;;;5041720;28;20060;-80
2023/08/12 10:27:52;;;;;;;0.98;0.80;;;31.40;96.70;;;;;;5061080;28;20060;-79
2023/08/12 10:30:21;;;;;;;1.55;0.80;;;31.50;96.70;;;;;;5063507;28;20078;-81
2023/08/12 10:32:51;;;;;;;1.05;0.75;;;31.70;96.70;;;;;;5047196;28;20828;-80
2023/08/12 10:35:19;;;;;;;3.63;0.82;;;31.90;96.70;;;;;;5063176;28;20502;-81
2023/08/12 10:37:51;;;;;;;4.35;1.15;;;32.00;96.70;;;;;;5064037;28;20044;-81
2023/08/12 10:40:23;;;;;;;1.17;0.77;;;32.10;96.70;;;;;;5065148;28;20040;-79
2023/08/12 10:42:51;;;;;;;1.75;0.90;;;32.40;96.70;;;;;;5064891;28;20033;-80
2023/08/12 10:45:19;;;;;;;2.20;1.20;;;32.40;96.70;;;;;;5064824;28;20422;-83
2023/08/12 10:48:18;;;;;;;2.20;0.88;;;32.60;96.70;;;;;;5056137;28;20048;-81
2023/08/12 10:50:48;;;;;;;2.55;1.00;;;32.60;96.70;;;;;;5064798;28;20053;-81
2023/08/12 10:53:29;;;;;;;1.13;0.90;;;32.70;96.70;;;;;;5064240;28;20136;-79
2023/08/12 10:55:59;;;;;;;1.38;1.00;;;32.70;96.70;;;;;;5060317;28;20048;-79
2023/08/12 10:58:29;;;;;;;1.92;1.00;;;32.80;96.70;;;;;;5057561;28;20041;-79
2023/08/12 11:00:58;;;;;;;2.90;0.93;;;32.90;96.70;;;;;;5063439;28;20235;-78
2023/08/12 11:03:33;;;;;;;1.00;0.90;;;32.90;96.70;;;;;;5064716;28;20063;-77
2023/08/12 11:06:05;;;;;;;1.42;1.10;;;32.90;96.70;;;;;;5061185;28;20054;-79
2023/08/12 11:08:33;;;;;;;2.47;1.00;;;33.00;96.70;;;;;;5062652;28;20090;-79
2023/08/12 11:11:02;;;;;;;3.08;1.00;;;33.00;96.70;;;;;;5058459;28;20052;-78
2023/08/12 11:13:30;;;;;;;1.63;1.20;;;33.10;96.70;;;;;;5062291;28;20041;-78
2023/08/12 11:16:07;;;;;;;1.75;1.10;;;33.30;96.70;;;;;;5063318;28;20106;-81
2023/08/12 11:18:41;;;;;;;1.85;0.98;;;33.30;96.70;;;;;;5045994;28;20075;-83
2023/08/12 11:21:13;;;;;;;1.60;1.05;;;33.50;96.70;;;;;;5045143;28;20176;-82
2023/08/12 11:23:41;;;;;;;2.05;0.90;;;33.60;96.70;;;;;;5064092;28;20037;-79
2023/08/12 11:26:10;;;;;;;2.15;1.20;;;33.70;96.70;;;;;;5062983;28;20055;-80
2023/08/12 11:28:38;;;;;;;1.33;1.00;;;33.80;96.70;;;;;;5064735;28;20036;-81
2023/08/12 11:31:07;;;;;;;1.17;1.00;;;33.90;96.70;;;;;;5062551;28;20045;-81
2023/08/12 11:33:38;;;;;;;2.40;1.25;;;34.10;96.70;;;;;;5064175;28;20391;-82
2023/08/12 11:36:07;;;;;;;1.10;1.00;;;34.10;96.70;;;;;;5064238;28;20087;-80
2023/08/12 11:38:35;;;;;;;1.52;0.90;;;33.80;96.70;;;;;;5062218;28;20033;-80
2023/08/12 11:41:03;;;;;;;1.52;1.20;;;34.10;96.70;;;;;;5063080;28;20045;-81
2023/08/12 11:43:32;;;;;;;2.10;1.00;;;34.20;96.70;;;;;;5065351;28;20119;-79
2023/08/12 11:46:01;;;;;;;1.45;1.13;;;34.10;96.70;;;;;;5065681;28;20052;-80
2023/08/12 11:48:29;;;;;;;1.88;1.30;;;34.20;96.70;;;;;;5065960;28;20064;-80
2023/08/12 11:50:58;;;;;;;1.35;0.85;;;34.30;96.70;;;;;;5069559;28;20048;-83
2023/08/12 11:53:27;;;;;;;1.58;1.15;;;34.60;96.70;;;;;;5067278;28;20052;-80
2023/08/12 11:55:55;;;;;;;1.98;1.00;;;34.60;96.70;;;;;;5065119;28;20585;-78
2023/08/12 11:58:24;;;;;;;2.83;1.05;;;34.70;96.70;;;;;;5070721;28;20537;-77
2023/08/12 12:00:54;;;;;;;1.80;0.90;;;34.90;96.70;;;;;;5066734;28;20512;-79
2023/08/12 12:03:27;;;;;;;2.45;1.00;;;34.60;96.70;;;;;;5066277;28;20560;-83
2023/08/12 12:05:58;;;;;;;0.93;0.80;;;34.60;96.70;;;;;;5066823;28;20050;-79
2023/08/12 12:08:26;;;;;;;2.38;1.15;;;34.80;96.70;;;;;;5057979;28;20041;-80
2023/08/12 12:10:55;;;;;;;1.33;0.90;;;34.80;96.70;;;;;;5065068;28;20047;-79
2023/08/12 12:13:25;;;;;;;0.75;0.63;;;35.00;96.70;;;;;;5064894;28;20053;-79
2023/08/12 12:15:53;;;;;;;2.00;0.80;;;35.00;96.70;;;;;;5045371;28;20045;-81
2023/08/12 12:18:24;;;;;;;1.45;1.35;;;35.00;96.70;;;;;;5065108;28;20075;-77
2023/08/12 12:20:56;;;;;;;2.15;0.90;;;35.10;96.70;;;;;;5064779;28;20040;-79
2023/08/12 12:23:30;;;;;;;1.08;0.90;;;34.90;96.70;;;;;;5065087;28;20139;-78
2023/08/12 12:26:00;;;;;;;1.35;1.00;;;35.00;96.70;;;;;;5063949;28;20048;-78
2023/08/12 12:28:28;;;;;;;4.03;1.10;;;35.00;96.70;;;;;;5064521;28;20072;-77
2023/08/12 12:30:57;;;;;;;1.88;1.10;;;35.10;96.70;;;;;;5066018;28;20044;-79
2023/08/12 12:33:26;;;;;;;1.40;0.93;;;35.20;96.70;;;;;;5065027;28;20053;-80
2023/08/12 12:35:55;;;;;;;1.48;1.00;;;35.10;96.70;;;;;;5069937;28;20094;-78
2023/08/12 12:38:28;;;;;;;4.25;1.30;;;35.10;96.70;;;;;;5066086;28;20131;-77
2023/08/12 12:40:57;;;;;;;2.85;1.10;;;35.20;96.70;;;;;;5066890;28;20101;-81
2023/08/12 12:43:25;;;;;;;3.13;1.27;;;35.20;96.70;;;;;;5068158;28;20089;-81
2023/08/12 12:45:53;;;;;;;1.48;1.33;;;35.20;96.70;;;;;;5082244;28;20032;-81
2023/08/12 12:48:22;;;;;;;2.20;1.27;;;35.30;96.70;;;;;;5066028;28;20044;-80
2023/08/12 12:50:50;;;;;;;1.30;1.00;;;35.30;96.70;;;;;;5062279;28;20518;-80
2023/08/12 12:53:19;;;;;;;2.13;1.33;;;35.20;96.70;;;;;;5065248;28;20036;-82
2023/08/12 12:55:49;;;;;;;1.63;1.17;;;35.30;96.70;;;;;;5066787;28;20136;-81